Strasbourg, France

8:57 AM CET on January 18, 2017 (GMT +0100)
Entzheim | | Change Station

Elev 505 ft 48.55 °N, 7.63 °E | Updated 27 minutes ago

Clear
Clear
25 °F
Feels Like 16 °F
N
8
Wind Variable Wind from NNE

Today
High -- | Low -- °F
--% Chance of Precip.
Yesterday
High -- | Low -- °F
Precip. -- in
Pressure 30.51 in
Visibility -9999.0 miles
Clouds
Windchill 16 °F
Dew Point 18 °F
Humidity 74%
Rainfall 0.00 in
Snow Depth Not available.
8:14 AM 5:06 PM
Waning Gibbous, 65% visible
METAR LFST 180730Z AUTO 02007KT CAVOK M04/M08 Q1033 TEMPO BKN006
Pressure 30.51 in
Visibility -9999.0 miles
Clouds
Windchill 16 °F
Dew Point 18 °F
Humidity 74%
Rainfall 0.00 in
Snow Depth Not available.
8:14 AM 5:06 PM
Waning Gibbous, 65% visible
METAR LFST 180730Z AUTO 02007KT CAVOK M04/M08 Q1033 TEMPO BKN006

Get Your Daily Forecast Email!

Thanks for signing up!

Be on the lookout for a verification email in your inbox.

You'll start receiving the daily forecast at 8 AM.

×

10-Day Weather Forecast

×

Almanac

Astronomy

Jan. 18, 2017 Rise Set
Actual Time
Civil Twilight
Nautical Twilight
Astronomical Twilight
Moon
Length of Visible Light
Length of Day
Tomorrow will be .
, % of the Moon is Illuminated

Today's Extremes

Country Highs Country Lows

Community

WunderPhotos

Upload Photos

1,962,540 photos uploaded!

WunderBlog® & News

Nearby

Air Quality

  Air Quality AQ Index Pollutant
Not available.

Snow Depth

Station Depth Elevation

Earthquake Activity

City Distance Mag. Time & Date
Minimum magnitude displayed is 2.5.

Coastal Water Temperatures

Place Temperature

Stations

Nearby Weather Stations

Station Location Temp. Windchill Dew Point Humidity Wind Precip. Elev Updated Type